Time;durP1;ratioP1;P1;durP2;ratioP2;P2;SDS_P1;SDS_P2;PMS_P1;PMS_P2;Temp;Humidity;BMP_temperature;BMP_pressure;BME280_temperature;BME280_humidity;BME280_pressure;Samples;Min_cycle;Max_cycle;Signal;HPM_P1;HPM_P2
2022/09/18 00:02:04;;;;;;;1.15;0.20;;;;;;;13.65;96.94;99917.50;4859289;29;20033;-81
2022/09/18 00:04:29;;;;;;;0.20;0.10;;;;;;;13.46;97.24;99892.53;4872414;29;20076;-81
2022/09/18 00:06:55;;;;;;;1.25;0.30;;;;;;;13.58;97.45;99911.41;4851754;29;20013;-82
2022/09/18 00:09:21;;;;;;;3.92;0.20;;;;;;;13.56;98.08;99910.81;4874383;29;20025;-82
2022/09/18 00:11:48;;;;;;;1.17;0.10;;;;;;;13.38;98.44;99898.31;4874625;29;20053;-82
2022/09/18 00:14:19;;;;;;;2.25;0.15;;;;;;;13.34;98.80;99895.28;4874931;29;20025;-82
2022/09/18 00:16:46;;;;;;;1.23;0.20;;;;;;;13.13;98.68;99863.47;4855147;29;20074;-81
2022/09/18 00:19:11;;;;;;;0.75;0.20;;;;;;;13.40;99.48;99912.41;4869285;29;20053;-81
2022/09/18 00:21:40;;;;;;;0.95;0.10;;;;;;;13.35;99.64;99913.13;4873762;29;20029;-81
2022/09/18 00:24:06;;;;;;;0.63;0.10;;;;;;;13.32;99.76;99910.91;4871928;29;20068;-82
2022/09/18 00:26:33;;;;;;;0.65;0.20;;;;;;;12.97;100.00;99859.63;4874122;29;20025;-82
2022/09/18 00:28:58;;;;;;;1.60;0.30;;;;;;;13.24;100.00;99910.41;4872278;29;20459;-82
2022/09/18 00:31:28;;;;;;;2.85;0.55;;;;;;;13.22;100.00;99917.94;4858825;29;20033;-82
2022/09/18 00:33:54;;;;;;;2.80;0.25;;;;;;;13.17;100.00;99916.75;4873784;29;20121;-81
2022/09/18 00:36:20;;;;;;;0.82;0.20;;;;;;;12.85;100.00;99861.53;4846775;29;20031;-82
2022/09/18 00:38:46;;;;;;;0.68;0.15;;;;;;;12.92;100.00;99881.13;4864221;29;20040;-82
2022/09/18 00:41:18;;;;;;;1.45;0.47;;;;;;;13.02;100.00;99904.84;4876629;29;20057;-82
2022/09/18 00:43:44;;;;;;;0.13;0.13;;;;;;;12.90;100.00;99902.13;4871265;29;20041;-82
2022/09/18 00:46:31;;;;;;;0.98;0.30;;;;;;;12.89;100.00;99903.19;4873840;29;20374;-82
2022/09/18 00:49:06;;;;;;;0.50;0.20;;;;;;;12.75;100.00;99908.03;4874956;29;20033;-81
2022/09/18 00:51:35;;;;;;;0.50;0.17;;;;;;;12.61;100.00;99906.59;4873873;29;20063;-81
2022/09/18 00:54:18;;;;;;;3.28;0.30;;;;;;;12.35;100.00;99911.41;4861614;29;20029;-82
2022/09/18 00:56:45;;;;;;;1.70;0.35;;;;;;;11.89;100.00;99852.81;4855057;29;20070;-81
2022/09/18 00:59:14;;;;;;;1.27;0.35;;;;;;;12.06;100.00;99894.22;4869809;29;20157;-82
2022/09/18 01:01:39;;;;;;;2.25;0.52;;;;;;;11.95;100.00;99892.31;4869241;29;20190;-81
2022/09/18 01:04:11;;;;;;;1.35;0.25;;;;;;;12.04;100.00;99911.69;4830537;29;20088;-82
2022/09/18 01:07:22;;;;;;;1.75;0.20;;;;;;;12.02;100.00;99916.47;4837492;29;20029;-82
2022/09/18 01:10:25;;;;;;;1.38;0.20;;;;;;;11.95;100.00;99916.56;4829754;29;20467;-82
2022/09/18 01:12:57;;;;;;;1.77;0.30;;;;;;;11.83;100.00;99904.91;4851583;29;20424;-81
2022/09/18 01:15:38;;;;;;;0.93;0.30;;;;;;;11.90;100.00;99922.66;4867497;29;20085;-82
2022/09/18 01:18:22;;;;;;;1.33;0.30;;;;;;;11.78;100.00;99902.88;4859543;29;20042;-82
2022/09/18 01:21:02;;;;;;;2.25;0.30;;;;;;;11.83;100.00;99918.41;4855577;29;20387;-82
2022/09/18 01:23:52;;;;;;;1.60;0.40;;;;;;;11.87;100.00;99923.13;4852003;29;20099;-82
2022/09/18 01:26:48;;;;;;;1.08;0.20;;;;;;;11.70;100.00;99901.34;4876985;29;20085;-81
2022/09/18 01:29:32;;;;;;;0.70;0.20;;;;;;;11.84;100.00;99933.50;4855326;29;20045;-82
2022/09/18 01:32:02;;;;;;;1.25;0.30;;;;;;;11.78;100.00;99924.44;4850827;29;21735;-81
2022/09/18 01:34:45;;;;;;;2.47;0.30;;;;;;;11.82;100.00;99931.06;4851591;29;20077;-82
2022/09/18 01:37:20;;;;;;;0.93;0.22;;;;;;;11.94;100.00;99928.41;4850349;29;20064;-82
2022/09/18 01:39:57;;;;;;;0.68;0.20;;;;;;;11.94;100.00;99929.22;4866689;29;20030;-82
2022/09/18 01:42:27;;;;;;;1.20;0.20;;;;;;;11.86;100.00;99915.28;4869154;29;20040;-82
2022/09/18 01:44:57;;;;;;;2.72;0.30;;;;;;;11.72;100.00;99896.56;4853901;29;20033;-82
2022/09/18 01:47:27;;;;;;;3.58;0.30;;;;;;;11.80;100.00;99911.56;4867495;29;20068;-81
2022/09/18 01:49:58;;;;;;;2.92;0.43;;;;;;;11.98;100.00;99908.84;4852381;29;20093;-82
2022/09/18 01:52:51;;;;;;;3.17;0.40;;;;;;;12.25;100.00;99902.22;4852913;29;20048;-82
2022/09/18 01:55:21;;;;;;;4.10;0.30;;;;;;;12.27;100.00;99905.50;4862447;29;20045;-82
2022/09/18 01:58:01;;;;;;;3.28;0.20;;;;;;;12.21;100.00;99893.78;4868907;29;20029;-82
2022/09/18 02:00:29;;;;;;;3.88;0.30;;;;;;;12.21;100.00;99881.09;4854276;29;20029;-81
2022/09/18 02:03:04;;;;;;;0.85;0.10;;;;;;;12.26;100.00;99893.91;4837739;29;20040;-82
2022/09/18 02:05:35;;;;;;;0.43;0.00;;;;;;;12.51;94.03;99874.78;4855208;29;20057;-80
2022/09/18 02:08:13;;;;;;;0.00;0.00;;;;;;;12.74;83.51;99848.84;4854271;29;20102;-82
2022/09/18 02:10:43;;;;;;;0.10;0.10;;;;;;;13.54;72.86;99886.75;4872658;29;20029;-82
2022/09/18 02:13:15;;;;;;;0.68;0.20;;;;;;;13.68;74.92;99867.53;4859428;29;20040;-82
2022/09/18 02:15:44;;;;;;;1.52;0.20;;;;;;;13.15;79.99;99783.03;4860934;29;20096;-82
2022/09/18 02:18:16;;;;;;;0.30;0.15;;;;;;;13.29;84.21;99832.22;4860330;29;20068;-82
2022/09/18 02:20:43;;;;;;;2.28;0.20;;;;;;;13.17;86.89;99833.03;4857881;29;20029;-82
2022/09/18 02:23:09;;;;;;;0.98;0.30;;;;;;;12.78;91.02;99804.97;4871403;29;20033;-82
2022/09/18 02:25:44;;;;;;;3.28;0.30;;;;;;;12.87;92.49;99851.31;4851114;29;20033;-82
2022/09/18 02:28:14;;;;;;;1.42;0.30;;;;;;;12.42;94.53;99819.56;4856580;29;20081;-81
2022/09/18 02:30:40;;;;;;;0.70;0.22;;;;;;;12.63;95.16;99872.09;4857004;29;20124;-82
2022/09/18 02:33:28;;;;;;;3.25;0.20;;;;;;;12.52;94.99;99872.94;4842086;29;20120;-82
2022/09/18 02:36:49;;;;;;;2.75;0.25;;;;;;;12.10;94.54;99819.06;4873446;29;20404;-81
2022/09/18 02:39:20;;;;;;;1.10;0.10;;;;;;;12.44;93.10;99890.28;4825065;29;20548;-82
2022/09/18 02:42:03;;;;;;;4.50;0.38;;;;;;;12.31;94.10;99887.81;4853838;29;20029;-82
2022/09/18 02:44:57;;;;;;;1.00;0.15;;;;;;;12.06;96.24;99885.31;4848960;29;20173;-82
2022/09/18 02:47:41;;;;;;;1.03;0.30;;;;;;;11.89;96.84;99877.06;4868953;29;20075;-82
2022/09/18 02:50:21;;;;;;;5.00;0.30;;;;;;;11.58;96.93;99843.88;4865330;29;20036;-82
2022/09/18 02:52:46;;;;;;;3.50;0.30;;;;;;;11.82;97.52;99896.00;4854042;29;20037;-81
2022/09/18 02:55:20;;;;;;;2.38;0.20;;;;;;;11.74;97.24;99877.44;4852710;29;20123;-82
2022/09/18 02:57:51;;;;;;;0.57;0.17;;;;;;;11.39;97.90;99851.22;4869478;29;20025;-82
2022/09/18 03:00:17;;;;;;;1.58;0.20;;;;;;;10.82;97.07;99749.19;4870945;29;20044;-82
2022/09/18 03:02:44;;;;;;;2.47;0.30;;;;;;;11.76;97.64;99905.81;4854902;29;20048;-82
2022/09/18 03:05:10;;;;;;;3.80;0.30;;;;;;;11.68;97.44;99902.63;4868907;29;20097;-82
2022/09/18 03:07:36;;;;;;;1.58;0.22;;;;;;;11.78;97.10;99900.19;4840044;29;20364;-82
2022/09/18 03:10:01;;;;;;;0.43;0.20;;;;;;;11.81;96.73;99901.63;4854472;29;20071;-82
2022/09/18 03:12:26;;;;;;;1.15;0.20;;;;;;;11.50;96.23;99841.53;4851458;29;20468;-82
2022/09/18 03:14:52;;;;;;;0.95;0.20;;;;;;;11.83;96.38;99894.13;4839453;29;20044;-82
2022/09/18 03:17:17;;;;;;;1.58;0.20;;;;;;;11.93;96.05;99908.72;4838899;29;20033;-82
2022/09/18 03:19:43;;;;;;;1.85;0.30;;;;;;;11.98;96.20;99908.03;4839957;29;20065;-82
2022/09/18 03:22:09;;;;;;;0.73;0.20;;;;;;;12.02;96.58;99908.38;4854082;29;20033;-81
2022/09/18 03:24:34;;;;;;;1.17;0.20;;;;;;;11.98;96.61;99910.72;4854163;29;20044;-82
2022/09/18 03:27:00;;;;;;;0.77;0.10;;;;;;;12.06;96.06;99915.81;4820502;29;20026;-82
2022/09/18 03:29:25;;;;;;;0.57;0.10;;;;;;;12.06;94.62;99885.31;4835722;29;20466;-82
2022/09/18 03:31:51;;;;;;;1.23;0.10;;;;;;;12.51;91.65;99920.66;4837033;29;20034;-81
2022/09/18 03:34:16;;;;;;;5.57;0.50;;;;;;;12.69;91.35;99920.56;4853174;29;20047;-82
2022/09/18 03:36:41;;;;;;;0.45;0.10;;;;;;;12.62;91.42;99882.09;4853936;29;20124;-82
2022/09/18 03:39:07;;;;;;;0.47;0.10;;;;;;;12.83;92.63;99923.84;4863535;29;20102;-82
2022/09/18 03:41:32;;;;;;;1.92;0.20;;;;;;;12.80;93.14;99888.41;4853812;29;20052;-82
2022/09/18 03:43:57;;;;;;;1.33;0.20;;;;;;;12.97;94.13;99924.44;4852880;29;20029;-82
2022/09/18 03:46:23;;;;;;;1.00;0.45;;;;;;;12.97;94.27;99923.59;4837330;29;20061;-81
2022/09/18 03:48:49;;;;;;;0.30;0.10;;;;;;;12.83;93.98;99904.13;4848458;29;20463;-82
2022/09/18 03:51:17;;;;;;;1.75;0.60;;;;;;;12.93;94.62;99917.84;4856924;29;20033;-82
2022/09/18 03:53:44;;;;;;;3.38;0.20;;;;;;;12.88;95.66;99913.19;4839941;29;20138;-82
2022/09/18 03:56:09;;;;;;;1.75;0.30;;;;;;;12.86;96.31;99923.38;4849477;29;20048;-82
2022/09/18 03:58:35;;;;;;;2.63;0.60;;;;;;;12.68;96.45;99888.41;4850250;29;20037;-82
2022/09/18 04:01:00;;;;;;;3.97;0.80;;;;;;;12.85;97.72;99905.56;4870681;29;20097;-82
2022/09/18 04:03:25;;;;;;;2.10;0.40;;;;;;;12.87;97.76;99921.50;4859038;29;20040;-82
2022/09/18 04:05:51;;;;;;;1.67;0.38;;;;;;;12.11;97.91;99791.88;4840063;29;20037;-82
2022/09/18 04:08:17;;;;;;;3.30;0.47;;;;;;;12.96;97.79;99919.28;4872213;29;20025;-81
2022/09/18 04:10:42;;;;;;;2.65;0.40;;;;;;;12.95;97.58;99918.47;4848316;29;20094;-82
2022/09/18 04:13:08;;;;;;;3.53;0.50;;;;;;;12.75;97.49;99893.69;4840108;29;20038;-82
2022/09/18 04:15:33;;;;;;;2.08;0.25;;;;;;;12.92;97.88;99918.94;4822725;29;20034;-82
2022/09/18 04:17:58;;;;;;;3.35;0.60;;;;;;;12.82;97.70;99906.03;4836483;29;20050;-82
2022/09/18 04:20:23;;;;;;;2.95;0.30;;;;;;;12.85;97.92;99924.44;4863697;29;20040;-82
2022/09/18 04:22:49;;;;;;;1.67;0.20;;;;;;;12.68;98.16;99932.44;4854213;29;20125;-82
2022/09/18 04:25:15;;;;;;;4.43;0.40;;;;;;;12.64;97.56;99922.31;4858605;29;20034;-82
2022/09/18 04:27:40;;;;;;;2.53;0.30;;;;;;;12.56;97.97;99931.59;4860343;29;20049;-82
2022/09/18 04:30:06;;;;;;;1.67;0.25;;;;;;;12.59;97.67;99923.03;4865319;29;20025;-81
2022/09/18 04:32:32;;;;;;;0.98;0.20;;;;;;;12.37;97.18;99890.41;4858171;29;20030;-82
2022/09/18 04:34:57;;;;;;;0.90;0.30;;;;;;;12.58;96.95;99921.41;4847765;29;20048;-80
2022/09/18 04:37:22;;;;;;;1.70;0.28;;;;;;;12.60;96.36;99927.38;4828860;29;20434;-81
2022/09/18 04:39:47;;;;;;;2.20;0.22;;;;;;;12.56;95.92;99931.59;4830538;29;20072;-80
2022/09/18 04:42:13;;;;;;;1.45;0.17;;;;;;;12.56;95.35;99923.50;4828105;29;20069;-80
2022/09/18 04:44:38;;;;;;;0.65;0.28;;;;;;;12.56;95.09;99914.59;4846676;29;20064;-80
2022/09/18 04:47:05;;;;;;;1.27;0.20;;;;;;;11.85;95.52;99835.44;4831005;29;20041;-81
2022/09/18 04:49:30;;;;;;;0.08;0.08;;;;;;;12.26;94.83;99896.59;4840204;29;20044;-81
2022/09/18 04:51:56;;;;;;;0.20;0.03;;;;;;;12.39;94.84;99927.94;4863197;29;20412;-82
2022/09/18 04:54:21;;;;;;;1.05;0.10;;;;;;;12.42;94.82;99925.59;4863683;29;20057;-81
2022/09/18 04:56:46;;;;;;;1.17;0.10;;;;;;;12.10;93.93;99878.41;4847613;29;20101;-81
2022/09/18 04:59:12;;;;;;;1.75;0.25;;;;;;;12.18;94.74;99902.31;4832320;29;20044;-81
2022/09/18 05:01:37;;;;;;;2.15;0.25;;;;;;;12.03;94.19;99875.81;4828752;29;20033;-81
2022/09/18 05:04:11;;;;;;;1.65;0.10;;;;;;;12.36;93.58;99920.31;4848098;29;20037;-81
2022/09/18 05:06:37;;;;;;;0.57;0.10;;;;;;;12.36;94.37;99926.53;4845356;29;20527;-81
2022/09/18 05:09:09;;;;;;;0.60;0.15;;;;;;;12.25;94.37;99902.22;4845110;29;20065;-82
2022/09/18 05:11:34;;;;;;;1.80;0.30;;;;;;;12.23;94.39;99894.38;4847716;29;20040;-81
2022/09/18 05:14:00;;;;;;;0.28;0.10;;;;;;;12.32;94.62;99936.16;4833308;29;20117;-82
2022/09/18 05:16:25;;;;;;;0.52;0.10;;;;;;;12.38;94.62;99929.84;4854585;29;20029;-82
2022/09/18 05:18:51;;;;;;;0.47;0.10;;;;;;;12.28;95.60;99928.72;4848370;29;20045;-81
2022/09/18 05:21:17;;;;;;;0.55;0.10;;;;;;;11.82;95.70;99870.91;4864752;29;20029;-81
2022/09/18 05:23:44;;;;;;;0.50;0.20;;;;;;;11.83;95.60;99873.38;4847823;29;20037;-81
2022/09/18 05:26:10;;;;;;;0.63;0.20;;;;;;;12.16;96.32;99932.25;4841491;29;20045;-82
2022/09/18 05:28:36;;;;;;;0.63;0.20;;;;;;;12.08;96.78;99921.75;4884113;29;20038;-82
2022/09/18 05:31:02;;;;;;;0.57;0.20;;;;;;;12.12;97.62;99927.50;4851924;29;20029;-82
2022/09/18 05:33:27;;;;;;;0.20;0.10;;;;;;;12.13;97.54;99935.41;4883444;29;20041;-82
2022/09/18 05:35:55;;;;;;;1.55;0.20;;;;;;;10.84;97.22;99732.84;4986899;24;20045;-83
2022/09/18 05:38:20;;;;;;;0.75;0.20;;;;;;;11.80;96.92;99857.66;4858640;29;20026;-81
2022/09/18 05:40:47;;;;;;;0.57;0.20;;;;;;;12.35;97.46;99940.22;4855635;29;20038;-82
2022/09/18 05:43:13;;;;;;;0.50;0.30;;;;;;;12.38;97.84;99948.72;4871742;29;20041;-82
2022/09/18 05:45:38;;;;;;;0.95;0.28;;;;;;;12.19;98.45;99926.38;4875624;29;20044;-83
2022/09/18 05:48:12;;;;;;;0.55;0.20;;;;;;;12.32;98.47;99948.81;4832755;29;20044;-83
2022/09/18 05:50:37;;;;;;;0.65;0.20;;;;;;;10.98;98.72;99749.63;5087355;24;20038;-83
2022/09/18 05:53:09;;;;;;;0.43;0.20;;;;;;;11.66;99.61;99870.53;4879311;29;20014;-82
2022/09/18 05:55:35;;;;;;;1.35;0.22;;;;;;;12.26;99.14;99947.84;4877765;29;20062;-83
2022/09/18 05:58:02;;;;;;;3.40;0.20;;;;;;;10.73;99.06;99690.56;4877890;29;20448;-81
2022/09/18 06:00:29;;;;;;;1.45;0.30;;;;;;;12.04;100.00;99922.47;4855362;29;20444;-81
2022/09/18 06:02:58;;;;;;;0.88;0.20;;;;;;;11.47;99.97;99831.22;4871139;29;20045;-81
2022/09/18 06:05:24;;;;;;;1.38;0.22;;;;;;;12.35;99.99;99954.56;4984646;24;20045;-81
2022/09/18 06:07:50;;;;;;;2.55;0.30;;;;;;;12.40;99.54;99951.16;4851043;29;20076;-80
2022/09/18 06:10:17;;;;;;;1.40;0.30;;;;;;;12.43;99.06;99954.22;4859797;29;20045;-82
2022/09/18 06:12:43;;;;;;;0.73;0.30;;;;;;;12.48;98.95;99950.81;4870378;29;20077;-83
2022/09/18 06:15:09;;;;;;;2.22;0.35;;;;;;;12.54;98.44;99951.78;4866376;29;20037;-82
2022/09/18 06:17:35;;;;;;;0.77;0.20;;;;;;;12.23;98.37;99895.19;4877444;29;20021;-81
2022/09/18 06:20:01;;;;;;;2.15;0.30;;;;;;;11.95;98.33;99858.09;4846979;29;20464;-82
2022/09/18 06:22:26;;;;;;;2.95;0.40;;;;;;;11.12;98.05;99726.03;4975109;24;20365;-80
2022/09/18 06:24:52;;;;;;;0.47;0.25;;;;;;;11.30;98.30;99744.84;4856422;29;20032;-81
2022/09/18 06:27:17;;;;;;;2.47;0.30;;;;;;;11.82;98.35;99825.94;4854438;29;20338;-81
2022/09/18 06:29:42;;;;;;;1.48;0.30;;;;;;;12.68;98.20;99972.91;4856394;29;20101;-81
2022/09/18 06:32:08;;;;;;;0.60;0.25;;;;;;;12.12;98.06;99871.72;4851848;29;20064;-81
2022/09/18 06:34:34;;;;;;;1.98;0.30;;;;;;;12.73;98.36;99963.28;4851941;29;20062;-81
2022/09/18 06:36:59;;;;;;;1.10;0.30;;;;;;;12.78;98.08;99969.66;4851405;29;20041;-80
2022/09/18 06:39:25;;;;;;;0.20;0.20;;;;;;;12.84;97.94;99965.16;4857527;29;20073;-82
2022/09/18 06:41:50;;;;;;;0.63;0.30;;;;;;;12.19;97.75;99850.06;4841647;29;20018;-81
2022/09/18 06:44:16;;;;;;;0.90;0.30;;;;;;;12.87;97.12;99948.50;4846911;29;20044;-81
2022/09/18 06:46:41;;;;;;;1.50;0.30;;;;;;;12.81;96.62;99954.84;4821295;29;20057;-81
2022/09/18 06:49:06;;;;;;;2.22;0.40;;;;;;;12.85;96.63;99966.84;4847784;29;20018;-82
2022/09/18 06:51:32;;;;;;;0.47;0.20;;;;;;;13.01;96.11;99978.78;4833155;29;20035;-82
2022/09/18 06:53:57;;;;;;;1.50;0.20;;;;;;;12.79;95.68;99941.59;4862991;29;20050;-81
2022/09/18 06:56:23;;;;;;;1.05;0.30;;;;;;;13.12;95.47;99994.19;4853736;29;20044;-81
2022/09/18 06:58:52;;;;;;;1.02;0.30;;;;;;;13.13;95.03;99993.94;4845256;29;20034;-81
2022/09/18 07:01:17;;;;;;;0.82;0.20;;;;;;;13.23;94.60;99990.63;4835169;29;20027;-81
2022/09/18 07:03:42;;;;;;;0.77;0.35;;;;;;;13.14;93.98;99992.91;4837476;29;20597;-80
2022/09/18 07:06:09;;;;;;;0.32;0.20;;;;;;;13.15;93.17;99999.94;4840480;29;20033;-81
2022/09/18 07:08:34;;;;;;;0.10;0.10;;;;;;;13.11;92.36;100011.41;4850274;29;20037;-81
2022/09/18 07:11:01;;;;;;;1.20;0.20;;;;;;;13.15;91.65;100007.22;4849443;29;20113;-81
2022/09/18 07:13:29;;;;;;;1.70;0.30;;;;;;;13.11;91.41;100001.47;4853094;29;20072;-82
2022/09/18 07:15:55;;;;;;;0.30;0.20;;;;;;;12.76;90.65;99946.63;4860198;29;20017;-81
2022/09/18 07:18:20;;;;;;;1.75;0.30;;;;;;;13.27;90.72;100012.63;4842198;29;20034;-81
2022/09/18 07:20:45;;;;;;;1.30;0.20;;;;;;;13.03;90.11;99995.59;4837799;29;20376;-80
2022/09/18 07:23:11;;;;;;;1.00;0.35;;;;;;;12.98;89.58;99999.00;4869872;29;20120;-81
2022/09/18 07:25:36;;;;;;;0.80;0.28;;;;;;;13.09;89.64;100011.66;4869539;29;20045;-81
2022/09/18 07:28:05;;;;;;;0.68;0.28;;;;;;;13.26;89.11;100016.41;4850972;29;20036;-81
2022/09/18 07:30:30;;;;;;;0.60;0.13;;;;;;;13.37;89.17;100019.06;4850621;29;20487;-81
2022/09/18 07:32:55;;;;;;;0.65;0.30;;;;;;;13.42;88.71;99999.47;4831480;29;20030;-81
2022/09/18 07:35:21;;;;;;;0.40;0.20;;;;;;;13.59;88.76;100019.28;4832976;29;20129;-80
2022/09/18 07:37:46;;;;;;;0.50;0.25;;;;;;;13.56;88.41;100017.06;4836359;29;20356;-81
2022/09/18 07:40:11;;;;;;;0.30;0.20;;;;;;;12.56;88.07;99883.03;4837529;29;20053;-81
2022/09/18 07:42:37;;;;;;;0.43;0.20;;;;;;;12.77;88.07;99905.06;4838183;29;20094;-80
2022/09/18 07:45:04;;;;;;;0.32;0.20;;;;;;;13.38;87.59;99987.50;4853669;29;20109;-81
2022/09/18 07:47:30;;;;;;;0.25;0.17;;;;;;;13.29;87.04;99973.50;4838018;29;20032;-80
2022/09/18 07:49:55;;;;;;;1.75;0.30;;;;;;;13.67;86.65;100022.69;4850194;29;20065;-81
2022/09/18 07:52:21;;;;;;;1.98;0.30;;;;;;;13.83;86.78;100040.84;4854743;29;20038;-81
2022/09/18 07:54:46;;;;;;;0.30;0.20;;;;;;;13.62;86.60;100016.09;4837560;29;20123;-81
2022/09/18 07:57:12;;;;;;;0.22;0.22;;;;;;;13.59;86.57;100021.16;4835375;29;20148;-81
2022/09/18 07:59:37;;;;;;;0.52;0.30;;;;;;;13.81;86.46;100056.53;4854330;29;20042;-81
2022/09/18 08:02:03;;;;;;;1.20;0.30;;;;;;;13.84;86.05;100051.44;4825133;29;20030;-81
2022/09/18 08:04:29;;;;;;;1.90;0.30;;;;;;;13.62;86.21;100013.41;4855954;29;20093;-81
2022/09/18 08:06:56;;;;;;;1.00;0.80;;;;;;;13.65;85.96;100025.63;4841887;29;20030;-81
2022/09/18 08:09:22;;;;;;;0.68;0.50;;;;;;;13.78;85.92;100065.09;4852001;29;20030;-81
2022/09/18 08:11:51;;;;;;;0.70;0.20;;;;;;;13.77;86.09;100068.84;4841114;29;20045;-81
2022/09/18 08:14:16;;;;;;;0.40;0.20;;;;;;;13.74;86.39;100075.56;4856569;29;20049;-81
2022/09/18 08:16:42;;;;;;;0.47;0.30;;;;;;;13.46;86.62;100032.25;4855940;29;20038;-81
2022/09/18 08:19:07;;;;;;;0.45;0.25;;;;;;;13.65;86.46;100066.19;4854223;29;20040;-81
2022/09/18 08:54:48;;;;;;;0.40;0.20;;;;;;;14.59;85.39;100111.09;5282963;23;20057;-81
2022/09/18 08:57:16;;;;;;;0.60;0.20;;;;;;;14.65;85.51;100113.66;4879860;29;20028;-81
2022/09/18 08:59:52;;;;;;;1.52;0.20;;;;;;;14.01;84.88;100024.47;4868546;29;20037;-81
2022/09/18 09:02:36;;;;;;;0.65;0.22;;;;;;;14.57;84.04;100076.97;4877536;29;20412;-81
2022/09/18 09:05:07;;;;;;;0.43;0.10;;;;;;;14.76;83.82;100091.09;4851496;29;20025;-80
2022/09/18 09:07:50;;;;;;;0.52;0.20;;;;;;;14.85;83.24;100104.25;4868392;29;20033;-80
2022/09/18 09:10:35;;;;;;;1.58;0.30;;;;;;;14.87;82.80;100108.38;4861380;29;20030;-80
2022/09/18 09:13:16;;;;;;;0.52;0.20;;;;;;;14.95;83.04;100107.13;4865944;29;20052;-80
2022/09/18 09:16:09;;;;;;;4.45;0.65;;;;;;;14.99;82.81;100087.44;4868114;29;20045;-80
2022/09/18 09:18:47;;;;;;;2.80;0.40;;;;;;;15.12;84.07;100107.97;4869937;29;20034;-80
2022/09/18 09:21:23;;;;;;;2.50;0.45;;;;;;;14.94;84.63;100068.41;4871909;29;20088;-82
2022/09/18 09:24:26;;;;;;;3.17;0.55;;;;;;;15.18;84.66;100103.44;4856262;29;20041;-80
2022/09/18 09:26:54;;;;;;;3.50;0.50;;;;;;;15.01;84.31;100093.44;4847755;29;20116;-80
2022/09/18 09:29:28;;;;;;;1.27;0.30;;;;;;;14.73;83.59;100075.34;4873845;29;20053;-80
2022/09/18 09:31:58;;;;;;;5.72;0.43;;;;;;;14.91;84.54;100108.69;4864163;29;20136;-80
2022/09/18 09:34:30;;;;;;;0.85;0.30;;;;;;;14.87;83.82;100102.94;4852501;29;20033;-80
2022/09/18 09:37:00;;;;;;;0.90;0.30;;;;;;;14.90;84.46;100107.03;4858945;29;20174;-80
2022/09/18 09:39:58;;;;;;;2.30;0.22;;;;;;;14.93;83.64;100106.56;4852789;29;20029;-80
2022/09/18 09:42:50;;;;;;;0.93;0.17;;;;;;;14.89;83.91;100103.50;4858027;29;20071;-80
2022/09/18 09:45:28;;;;;;;1.33;0.20;;;;;;;14.91;83.65;100106.81;4847014;29;20473;-80
2022/09/18 09:48:09;;;;;;;0.88;0.22;;;;;;;14.80;83.22;100089.56;4851776;29;20033;-80
2022/09/18 09:50:43;;;;;;;0.40;0.20;;;;;;;14.80;82.69;100104.97;4859733;29;20044;-80
2022/09/18 09:53:11;;;;;;;1.92;0.30;;;;;;;14.69;82.92;100092.31;4854460;29;20045;-80
2022/09/18 09:55:46;;;;;;;1.63;0.30;;;;;;;14.82;83.22;100115.56;4834725;29;20061;-80
2022/09/18 09:58:11;;;;;;;;;;;;;;;14.88;82.91;100117.31;4861917;29;20097;-81
2022/09/18 10:00:47;;;;;;;0.23;0.17;;;;;;;14.73;83.05;100096.19;4852835;29;19969;-80
2022/09/18 10:03:51;;;;;;;0.40;0.20;;;;;;;14.72;83.27;100118.91;4861515;29;20344;-80
2022/09/18 10:06:34;;;;;;;2.33;0.50;;;;;;;14.88;83.67;100125.44;4870987;29;20034;-81
2022/09/18 10:09:20;;;;;;;1.25;0.52;;;;;;;14.91;84.03;100127.66;4856154;29;20037;-79
2022/09/18 10:11:55;;;;;;;0.63;0.40;;;;;;;14.77;83.68;100125.25;4881606;29;20065;-80
2022/09/18 10:14:24;;;;;;;1.70;0.30;;;;;;;14.86;84.08;100146.53;4868892;29;20034;-80
2022/09/18 10:16:53;;;;;;;1.08;0.30;;;;;;;14.82;84.05;100138.06;4865591;29;20121;-79
2022/09/18 10:19:20;;;;;;;0.82;0.30;;;;;;;14.80;84.11;100135.59;4836974;29;20033;-80
2022/09/18 10:21:49;;;;;;;0.50;0.20;;;;;;;14.91;84.85;100135.78;4855693;29;20341;-80
2022/09/18 10:24:52;;;;;;;1.20;0.30;;;;;;;15.00;84.15;100129.72;4862641;29;20053;-79
2022/09/18 10:27:18;;;;;;;0.30;0.20;;;;;;;15.00;84.45;100137.84;4833897;29;20140;-79
2022/09/18 10:29:44;;;;;;;2.13;0.25;;;;;;;15.14;82.77;100132.13;4851133;29;20033;-79
2022/09/18 10:32:11;;;;;;;1.15;0.20;;;;;;;15.23;82.34;100131.47;4843052;29;20029;-80
2022/09/18 10:34:46;;;;;;;3.60;0.30;;;;;;;15.46;81.25;100144.03;4830764;29;20029;-80
2022/09/18 10:37:16;;;;;;;0.85;0.20;;;;;;;15.47;80.73;100132.09;4848671;29;20032;-79
2022/09/18 10:39:52;;;;;;;1.67;0.30;;;;;;;15.55;79.39;100147.13;4852590;29;20125;-79
2022/09/18 10:42:23;;;;;;;0.47;0.20;;;;;;;15.21;79.54;100101.06;4834408;29;20035;-78
2022/09/18 10:44:52;;;;;;;6.50;0.30;;;;;;;15.34;79.04;100127.03;4856400;29;20365;-79
2022/09/18 10:47:36;;;;;;;0.20;0.20;;;;;;;15.42;78.78;100133.91;4851632;29;20029;-80
2022/09/18 10:50:05;;;;;;;0.52;0.10;;;;;;;15.50;80.29;100156.03;4856362;29;20073;-80
2022/09/18 10:52:37;;;;;;;0.30;0.20;;;;;;;15.51;80.01;100163.06;4948908;24;20062;-81
2022/09/18 10:55:06;;;;;;;0.90;0.63;;;;;;;15.56;80.79;100158.78;4807217;29;20345;-81
2022/09/18 10:57:35;;;;;;;1.67;0.28;;;;;;;15.70;81.59;100160.97;4802331;29;20050;-80
2022/09/18 11:00:11;;;;;;;0.10;0.10;;;;;;;15.75;81.34;100168.34;4815961;29;20046;-81
2022/09/18 11:03:03;;;;;;;0.20;0.13;;;;;;;15.63;79.76;100143.16;4823132;29;20117;-81
2022/09/18 11:05:34;;;;;;;0.35;0.20;;;;;;;15.95;81.05;100176.78;4823132;29;20043;-81
2022/09/18 11:08:04;;;;;;;13.05;1.63;;;;;;;15.70;83.65;100157.44;4815311;29;20038;-81
2022/09/18 11:10:36;;;;;;;13.50;1.83;;;;;;;15.53;87.20;100176.41;4811703;29;20058;-80
2022/09/18 11:13:02;;;;;;;9.60;1.20;;;;;;;15.02;88.69;100149.25;4804965;29;20027;-79
2022/09/18 11:15:31;;;;;;;16.92;1.85;;;;;;;14.97;89.54;100178.97;4797438;29;20053;-79
2022/09/18 11:18:03;;;;;;;5.53;0.60;;;;;;;14.69;89.73;100168.16;4797028;29;20030;-80
2022/09/18 11:20:40;;;;;;;13.88;1.00;;;;;;;14.42;91.25;100143.50;4800615;29;20478;-79
2022/09/18 11:23:36;;;;;;;2.53;0.30;;;;;;;14.09;94.07;100099.81;4811354;29;20042;-79
2022/09/18 11:26:29;;;;;;;0.98;0.30;;;;;;;14.57;94.84;100177.16;4777067;29;20530;-80
2022/09/18 11:29:20;;;;;;;1.85;0.20;;;;;;;14.31;94.36;100151.41;4812900;29;20039;-81
2022/09/18 11:31:51;;;;;;;1.55;0.20;;;;;;;14.23;95.98;100145.53;4806743;29;20038;-80
2022/09/18 11:34:37;;;;;;;1.05;0.30;;;;;;;14.26;96.23;100161.31;4795928;29;20121;-79
2022/09/18 11:37:10;;;;;;;1.63;0.30;;;;;;;14.26;96.04;100166.72;4800905;29;20588;-79
2022/09/18 11:39:39;;;;;;;1.55;0.20;;;;;;;14.37;96.37;100189.41;4810845;29;20111;-81
2022/09/18 11:42:14;;;;;;;0.35;0.20;;;;;;;14.30;95.54;100176.00;4811620;29;20031;-79
2022/09/18 11:44:40;;;;;;;0.88;0.30;;;;;;;14.34;94.56;100185.31;4795843;29;20366;-79
2022/09/18 11:47:26;;;;;;;1.15;0.20;;;;;;;14.40;94.99;100183.50;4800418;29;20031;-79
2022/09/18 11:50:14;;;;;;;0.75;0.22;;;;;;;14.36;96.99;100185.88;4803523;29;20175;-80
2022/09/18 11:52:48;;;;;;;0.68;0.20;;;;;;;14.38;97.28;100181.06;4814126;29;20058;-79
2022/09/18 11:55:41;;;;;;;1.27;0.20;;;;;;;14.48;98.93;100180.44;4837099;29;20033;-79
2022/09/18 11:58:18;;;;;;;1.25;0.30;;;;;;;14.54;99.17;100179.50;4819335;29;20027;-81
2022/09/18 12:01:15;;;;;;;0.45;0.20;;;;;;;14.51;97.92;100169.97;4838616;29;20034;-80
2022/09/18 12:04:18;;;;;;;2.38;0.20;;;;;;;14.88;97.63;100190.44;4833848;29;20025;-80
2022/09/18 12:07:01;;;;;;;0.47;0.10;;;;;;;15.17;96.34;100202.09;4846051;29;20512;-79
2022/09/18 12:09:36;;;;;;;2.13;0.32;;;;;;;15.28;93.71;100202.00;4838338;29;20033;-80
2022/09/18 12:12:31;;;;;;;;;;;;;;;15.39;92.11;100196.75;4844142;29;20026;-79
2022/09/18 12:15:15;;;;;;;0.70;0.20;;;;;;;15.30;93.03;100181.97;4809099;29;19939;-79
2022/09/18 12:17:47;;;;;;;0.77;0.20;;;;;;;15.45;94.93;100196.59;4844037;29;20087;-80
2022/09/18 12:20:33;;;;;;;1.50;0.30;;;;;;;15.60;93.49;100196.03;4842498;29;20043;-79
2022/09/18 12:23:01;;;;;;;2.22;0.30;;;;;;;15.37;93.65;100207.88;4823885;29;20033;-79